Time;durP1;ratioP1;P1;durP2;ratioP2;P2;SDS_P1;SDS_P2;PMS_P1;PMS_P2;Temp;Humidity;BMP_temperature;BMP_pressure;BME280_temperature;BME280_humidity;BME280_pressure;Samples;Min_cycle;Max_cycle;Signal;HPM_P1;HPM_P2
2021/01/27 00:00:07;;;;;;;;;;;;;;;;;;4357036;32;19981;-72
2021/01/27 00:02:33;;;;;;;;;;;;;;;;;;4371424;32;19969;-72
2021/01/27 00:04:59;;;;;;;;;;;;;;;;;;4379855;32;20042;-72
2021/01/27 00:07:24;;;;;;;;;;;;;;;;;;4360019;32;19973;-72
2021/01/27 00:09:50;;;;;;;;;;;;;;;;;;4354238;32;19973;-72
2021/01/27 00:12:15;;;;;;;;;;;;;;;;;;4379244;32;19973;-71
2021/01/27 00:14:41;;;;;;;;;;;;;;;;;;4378964;32;19977;-73
2021/01/27 00:17:06;;;;;;;;;;;;;;;;;;4364763;32;20000;-73
2021/01/27 00:19:32;;;;;;;;;;;;;;;;;;4378481;32;20359;-72
2021/01/27 00:21:57;;;;;;;;;;;;;;;;;;4378509;32;20380;-72
2021/01/27 00:24:23;;;;;;;;;;;;;;;;;;4378405;32;19989;-73
2021/01/27 00:26:48;;;;;;;;;;;;;;;;;;4364749;32;19984;-72
2021/01/27 00:29:14;;;;;;;;;;;;;;;;;;4364413;32;20037;-71
2021/01/27 00:31:40;;;;;;;;;;;;;;;;;;4356010;32;19989;-72
2021/01/27 00:34:05;;;;;;;;;;;;;;;;;;4337135;32;19974;-72
2021/01/27 00:36:31;;;;;;;;;;;;;;;;;;4337379;32;20508;-73
2021/01/27 00:38:56;;;;;;;;;;;;;;;;;;4337208;32;20453;-72
2021/01/27 00:41:22;;;;;;;;;;;;;;;;;;4363982;32;20384;-72
2021/01/27 00:43:47;;;;;;;;;;;;;;;;;;4361692;32;19997;-73
2021/01/27 00:46:13;;;;;;;;;;;;;;;;;;4363232;32;19974;-72
2021/01/27 00:48:38;;;;;;;;;;;;;;;;;;4349082;32;20352;-72
2021/01/27 00:51:04;;;;;;;;;;;;;;;;;;4363324;32;19974;-73
2021/01/27 00:53:29;;;;;;;;;;;;;;;;;;4336660;32;19981;-73
2021/01/27 00:55:55;;;;;;;;;;;;;;;;;;4363210;32;19981;-73
2021/01/27 00:58:20;;;;;;;;;;;;;;;;;;4337214;32;19977;-72
2021/01/27 01:00:46;;;;;;;;;;;;;;;;;;4350373;32;20042;-72
2021/01/27 01:03:11;;;;;;;;;;;;;;;;;;4348988;32;20048;-73
2021/01/27 01:05:38;;;;;;;;;;;;;;;;;;4349464;32;20060;-72
2021/01/27 01:08:04;;;;;;;;;;;;;;;;;;4337651;32;19973;-72
2021/01/27 01:10:33;;;;;;;;;;;;;;;;;;4349168;32;19969;-73
2021/01/27 01:12:58;;;;;;;;;;;;;;;;;;4336650;32;20359;-73
2021/01/27 01:15:24;;;;;;;;;;;;;;;;;;4336443;32;19981;-73
2021/01/27 01:17:50;;;;;;;;;;;;;;;;;;4349130;32;20028;-72
2021/01/27 01:20:15;;;;;;;;;;;;;;;;;;4336503;32;19973;-72
2021/01/27 01:22:54;;;;;;;;;;;;;;;;;;4336805;32;19986;-72
2021/01/27 01:25:20;;;;;;;;;;;;;;;;;;4348822;32;19970;-72
2021/01/27 01:27:46;;;;;;;;;;;;;;;;;;4348539;32;20037;-72
2021/01/27 01:30:13;;;;;;;;;;;;;;;;;;4348690;32;19996;-71
2021/01/27 01:32:39;;;;;;;;;;;;;;;;;;4351351;32;19965;-72
2021/01/27 01:35:05;;;;;;;;;;;;;;;;;;4377601;32;20023;-73
2021/01/27 01:37:30;;;;;;;;;;;;;;;;;;4377679;32;19977;-72
2021/01/27 01:39:56;;;;;;;;;;;;;;;;;;4363263;32;19961;-72
2021/01/27 01:42:21;;;;;;;;;;;;;;;;;;4351089;32;19968;-73
2021/01/27 01:44:47;;;;;;;;;;;;;;;;;;4363448;32;19982;-72
2021/01/27 01:47:12;;;;;;;;;;;;;;;;;;4363830;32;19973;-71
2021/01/27 01:49:38;;;;;;;;;;;;;;;;;;4377022;32;20007;-72
2021/01/27 01:52:03;;;;;;;;;;;;;;;;;;4363697;32;19985;-72
2021/01/27 01:54:33;;;;;;;;;;;;;;;;;;4363296;32;19988;-72
2021/01/27 01:57:00;;;;;;;;;;;;;;;;;;4363538;32;19997;-72
2021/01/27 01:59:26;;;;;;;;;;;;;;;;;;4362632;32;20402;-71
2021/01/27 02:01:52;;;;;;;;;;;;;;;;;;4361711;32;19989;-71
2021/01/27 02:04:17;;;;;;;;;;;;;;;;;;4361065;32;20343;-72
2021/01/27 02:06:43;;;;;;;;;;;;;;;;;;4348352;32;20062;-72
2021/01/27 02:09:09;;;;;;;;;;;;;;;;;;4360613;32;19981;-72
2021/01/27 02:11:37;;;;;;;;;;;;;;;;;;4360869;32;20313;-72
2021/01/27 02:14:08;;;;;;;;;;;;;;;;;;4360662;32;20018;-73
2021/01/27 02:16:52;;;;;;;;;;;;;;;;;;4360611;32;19970;-73
2021/01/27 02:19:23;;;;;;;;;;;;;;;;;;4362182;32;20483;-71
2021/01/27 02:22:04;;;;;;;;;;;;;;;;;;4361960;32;19970;-72
2021/01/27 02:24:48;;;;;;;;;;;;;;;;;;4360888;32;19965;-72
2021/01/27 02:27:23;;;;;;;;;;;;;;;;;;4360462;32;20072;-72
2021/01/27 02:29:55;;;;;;;;;;;;;;;;;;4361873;32;19970;-72
2021/01/27 02:32:23;;;;;;;;;;;;;;;;;;4350490;32;20344;-72
2021/01/27 02:35:08;;;;;;;;;;;;;;;;;;4362072;32;20062;-72
2021/01/27 02:37:35;;;;;;;;;;;;;;;;;;4361773;32;20421;-72
2021/01/27 02:40:07;;;;;;;;;;;;;;;;;;4323316;32;19977;-72
2021/01/27 02:42:39;;;;;;;;;;;;;;;;;;4340752;32;19962;-73
2021/01/27 02:45:05;;;;;;;;;;;;;;;;;;4358127;32;20043;-72
2021/01/27 02:47:37;;;;;;;;;;;;;;;;;;4352114;32;20048;-72
2021/01/27 02:50:13;;;;;;;;;;;;;;;;;;4347868;32;19969;-73
2021/01/27 02:52:44;;;;;;;;;;;;;;;;;;4348285;32;20396;-72
2021/01/27 02:55:10;;;;;;;;;;;;;;;;;;4348045;32;19968;-73
2021/01/27 02:57:37;;;;;;;;;;;;;;;;;;4361608;32;19988;-72
2021/01/27 03:00:07;;;;;;;;;;;;;;;;;;4342371;32;20001;-72
2021/01/27 03:02:38;;;;;;;;;;;;;;;;;;4365251;32;19961;-72
2021/01/27 03:05:06;;;;;;;;;;;;;;;;;;4365593;32;20020;-72
2021/01/27 03:07:31;;;;;;;;;;;;;;;;;;4379924;32;19969;-71
2021/01/27 03:10:02;;;;;;;;;;;;;;;;;;4365559;32;20029;-72
2021/01/27 03:12:27;;;;;;;;;;;;;;;;;;4365643;32;19980;-72
2021/01/27 03:14:53;;;;;;;;;;;;;;;;;;4365895;32;20029;-71
2021/01/27 03:17:19;;;;;;;;;;;;;;;;;;4365712;32;19970;-73
2021/01/27 03:20:05;;;;;;;;;;;;;;;;;;4353211;32;20002;-72
2021/01/27 03:22:31;;;;;;;;;;;;;;;;;;4366152;32;19973;-73
2021/01/27 03:25:01;;;;;;;;;;;;;;;;;;4365696;32;19964;-72
2021/01/27 03:27:28;;;;;;;;;;;;;;;;;;4340816;32;19958;-71
2021/01/27 03:29:54;;;;;;;;;;;;;;;;;;4365875;32;19976;-72
2021/01/27 03:32:29;;;;;;;;;;;;;;;;;;4340731;32;19966;-72
2021/01/27 03:35:06;;;;;;;;;;;;;;;;;;4364402;32;19981;-73
2021/01/27 03:37:38;;;;;;;;;;;;;;;;;;4350985;32;19970;-72
2021/01/27 03:40:06;;;;;;;;;;;;;;;;;;4363994;32;19981;-72
2021/01/27 03:42:33;;;;;;;;;;;;;;;;;;4338408;32;20041;-71
2021/01/27 03:45:00;;;;;;;;;;;;;;;;;;4338268;32;20388;-72
2021/01/27 03:47:31;;;;;;;;;;;;;;;;;;4339216;32;20034;-72
2021/01/27 03:50:16;;;;;;;;;;;;;;;;;;4338523;32;19972;-72
2021/01/27 03:52:42;;;;;;;;;;;;;;;;;;4338714;32;20039;-72
2021/01/27 03:55:22;;;;;;;;;;;;;;;;;;4338200;32;19977;-72
2021/01/27 03:57:58;;;;;;;;;;;;;;;;;;4338351;32;19991;-73
2021/01/27 04:00:27;;;;;;;;;;;;;;;;;;4359153;32;20085;-72
2021/01/27 04:03:00;;;;;;;;;;;;;;;;;;4365622;32;20386;-72
2021/01/27 04:05:25;;;;;;;;;;;;;;;;;;4340371;32;19962;-73
2021/01/27 04:07:51;;;;;;;;;;;;;;;;;;4364700;32;20050;-73
2021/01/27 04:10:16;;;;;;;;;;;;;;;;;;4378781;32;20051;-72
2021/01/27 04:12:42;;;;;;;;;;;;;;;;;;4352021;32;20051;-72
2021/01/27 04:15:07;;;;;;;;;;;;;;;;;;4378904;32;19989;-72
2021/01/27 04:17:33;;;;;;;;;;;;;;;;;;4353107;32;20041;-72
2021/01/27 04:19:58;;;;;;;;;;;;;;;;;;4365314;32;19980;-72
2021/01/27 04:22:24;;;;;;;;;;;;;;;;;;4365569;32;19993;-72
2021/01/27 04:24:50;;;;;;;;;;;;;;;;;;4352828;32;19993;-72
2021/01/27 04:27:15;;;;;;;;;;;;;;;;;;4352406;32;20025;-72
2021/01/27 04:29:41;;;;;;;;;;;;;;;;;;4378755;32;19970;-72
2021/01/27 04:32:06;;;;;;;;;;;;;;;;;;4370791;32;19997;-73
2021/01/27 04:34:32;;;;;;;;;;;;;;;;;;4358282;32;20017;-66
2021/01/27 04:36:58;;;;;;;;;;;;;;;;;;4362790;32;19962;-67
2021/01/27 04:39:23;;;;;;;;;;;;;;;;;;4351053;32;20008;-69
2021/01/27 04:41:49;;;;;;;;;;;;;;;;;;4347078;32;19965;-67
2021/01/27 04:44:14;;;;;;;;;;;;;;;;;;4353300;32;20013;-67
2021/01/27 04:46:46;;;;;;;;;;;;;;;;;;4347673;32;19993;-68
2021/01/27 04:49:12;;;;;;;;;;;;;;;;;;4353850;32;19970;-69
2021/01/27 04:51:45;;;;;;;;;;;;;;;;;;4363854;32;19966;-69
2021/01/27 04:54:14;;;;;;;;;;;;;;;;;;4350926;32;19988;-67
2021/01/27 04:56:49;;;;;;;;;;;;;;;;;;4363192;32;20066;-68
2021/01/27 04:59:34;;;;;;;;;;;;;;;;;;4363866;32;19965;-66
2021/01/27 05:02:06;;;;;;;;;;;;;;;;;;4349085;32;20053;-66
2021/01/27 05:04:34;;;;;;;;;;;;;;;;;;4345690;32;19962;-67
2021/01/27 05:07:14;;;;;;;;;;;;;;;;;;4349403;32;20338;-69
2021/01/27 05:09:42;;;;;;;;;;;;;;;;;;4363072;32;19968;-67
2021/01/27 05:12:08;;;;;;;;;;;;;;;;;;4352202;32;19973;-68
2021/01/27 05:14:33;;;;;;;;;;;;;;;;;;4363895;32;20437;-67
2021/01/27 05:16:59;;;;;;;;;;;;;;;;;;4363571;32;20388;-67
2021/01/27 05:19:24;;;;;;;;;;;;;;;;;;4363401;32;20159;-66
2021/01/27 05:21:50;;;;;;;;;;;;;;;;;;4359020;32;19978;-67
2021/01/27 05:24:16;;;;;;;;;;;;;;;;;;4350818;32;20455;-65
2021/01/27 05:26:48;;;;;;;;;;;;;;;;;;4339814;32;19977;-67
2021/01/27 05:29:15;;;;;;;;;;;;;;;;;;4363110;32;19966;-69
2021/01/27 05:32:01;;;;;;;;;;;;;;;;;;4347792;32;19965;-69
2021/01/27 05:34:37;;;;;;;;;;;;;;;;;;4351526;32;19976;-68
2021/01/27 05:37:03;;;;;;;;;;;;;;;;;;4363771;32;19993;-72
2021/01/27 05:39:30;;;;;;;;;;;;;;;;;;4350029;32;19973;-66
2021/01/27 05:42:21;;;;;;;;;;;;;;;;;;4354458;32;20384;-69
2021/01/27 05:44:47;;;;;;;;;;;;;;;;;;4367588;32;19969;-68
2021/01/27 05:47:32;;;;;;;;;;;;;;;;;;4348023;32;19981;-70
2021/01/27 05:49:58;;;;;;;;;;;;;;;;;;4363665;32;19985;-69
2021/01/27 05:52:26;;;;;;;;;;;;;;;;;;4366734;32;19981;-69
2021/01/27 05:54:52;;;;;;;;;;;;;;;;;;4362523;32;19977;-70
2021/01/27 05:57:24;;;;;;;;;;;;;;;;;;4360013;32;20351;-71
2021/01/27 05:59:50;;;;;;;;;;;;;;;;;;4348761;32;19981;-71
2021/01/27 06:02:15;;;;;;;;;;;;;;;;;;4360354;32;20371;-70
2021/01/27 06:04:41;;;;;;;;;;;;;;;;;;4360064;32;19965;-69
2021/01/27 06:07:21;;;;;;;;;;;;;;;;;;4362698;32;19966;-71
2021/01/27 06:09:50;;;;;;;;;;;;;;;;;;4348409;32;19970;-72
2021/01/27 06:12:18;;;;;;;;;;;;;;;;;;4359457;32;21064;-71
2021/01/27 06:14:44;;;;;;;;;;;;;;;;;;4374654;32;19993;-70
2021/01/27 06:17:13;;;;;;;;;;;;;;;;;;4349832;32;20115;-69
2021/01/27 06:19:39;;;;;;;;;;;;;;;;;;4367796;32;19972;-67
2021/01/27 06:22:27;;;;;;;;;;;;;;;;;;4361996;32;20061;-70
2021/01/27 06:25:03;;;;;;;;;;;;;;;;;;4351460;32;20040;-70
2021/01/27 06:27:38;;;;;;;;;;;;;;;;;;4365605;32;19969;-71
2021/01/27 06:30:10;;;;;;;;;;;;;;;;;;4366600;32;19985;-70
2021/01/27 06:32:54;;;;;;;;;;;;;;;;;;4371062;32;20029;-70
2021/01/27 06:35:20;;;;;;;;;;;;;;;;;;4340683;32;19984;-68
2021/01/27 06:37:50;;;;;;;;;;;;;;;;;;4356487;32;19969;-70
2021/01/27 06:40:34;;;;;;;;;;;;;;;;;;4360481;32;19961;-72
2021/01/27 06:43:00;;;;;;;;;;;;;;;;;;4371423;32;19989;-70
2021/01/27 06:45:44;;;;;;;;;;;;;;;;;;4344239;32;20390;-70
2021/01/27 06:48:25;;;;;;;;;;;;;;;;;;4371137;32;20439;-68
2021/01/27 06:50:54;;;;;;;;;;;;;;;;;;4374681;32;19985;-68
2021/01/27 06:53:35;;;;;;;;;;;;;;;;;;4340872;32;20058;-69
2021/01/27 06:56:19;;;;;;;;;;;;;;;;;;4357442;32;20410;-69
2021/01/27 06:58:50;;;;;;;;;;;;;;;;;;4372169;32;19980;-70
2021/01/27 07:01:15;;;;;;;;;;;;;;;;;;4359350;32;20002;-69
2021/01/27 07:04:00;;;;;;;;;;;;;;;;;;4359310;32;20062;-70
2021/01/27 07:06:51;;;;;;;;;;;;;;;;;;4369575;32;19965;-72
2021/01/27 07:09:27;;;;;;;;;;;;;;;;;;4344372;32;19975;-71
2021/01/27 07:11:57;;;;;;;;;;;;;;;;;;4354677;32;19989;-68
2021/01/27 07:14:31;;;;;;;;;;;;;;;;;;4360919;32;19966;-69
2021/01/27 07:17:06;;;;;;;;;;;;;;;;;;4364063;32;19965;-71
2021/01/27 07:19:43;;;;;;;;;;;;;;;;;;4342775;32;19965;-69
2021/01/27 07:22:18;;;;;;;;;;;;;;;;;;4375179;32;20403;-70
2021/01/27 07:25:05;;;;;;;;;;;;;;;;;;4361887;32;20359;-69
2021/01/27 07:27:31;;;;;;;;;;;;;;;;;;4350147;32;20038;-67
2021/01/27 07:30:14;;;;;;;;;;;;;;;;;;4347820;32;19962;-68
2021/01/27 07:32:40;;;;;;;;;;;;;;;;;;4347741;32;19981;-69
2021/01/27 07:35:11;;;;;;;;;;;;;;;;;;4351322;32;20387;-69
2021/01/27 07:37:45;;;;;;;;;;;;;;;;;;4358775;32;20000;-68
2021/01/27 07:40:11;;;;;;;;;;;;;;;;;;4374855;32;20083;-70
2021/01/27 07:42:48;;;;;;;;;;;;;;;;;;4354306;32;19985;-68
2021/01/27 07:45:18;;;;;;;;;;;;;;;;;;4339130;32;20053;-69
2021/01/27 07:48:03;;;;;;;;;;;;;;;;;;4348258;32;20440;-70
2021/01/27 07:50:29;;;;;;;;;;;;;;;;;;4362235;32;19966;-68
2021/01/27 07:53:12;;;;;;;;;;;;;;;;;;4351918;32;19977;-70
2021/01/27 07:55:40;;;;;;;;;;;;;;;;;;4344535;32;19992;-70
2021/01/27 07:58:09;;;;;;;;;;;;;;;;;;4360067;32;20053;-69
2021/01/27 08:00:37;;;;;;;;;;;;;;;;;;4341637;32;20045;-68
2021/01/27 08:03:03;;;;;;;;;;;;;;;;;;4361540;32;19975;-69
2021/01/27 08:05:39;;;;;;;;;;;;;;;;;;4372355;32;20417;-70
2021/01/27 08:08:08;;;;;;;;;;;;;;;;;;4350467;32;20045;-73
2021/01/27 08:10:34;;;;;;;;;;;;;;;;;;4364442;32;20348;-69
2021/01/27 08:13:02;;;;;;;;;;;;;;;;;;4359636;32;20053;-68
2021/01/27 08:15:28;;;;;;;;;;;;;;;;;;4343181;32;20001;-64
2021/01/27 08:17:54;;;;;;;;;;;;;;;;;;4346568;32;20571;-65
2021/01/27 08:20:21;;;;;;;;;;;;;;;;;;4343733;32;20037;-63
2021/01/27 08:22:53;;;;;;;;;;;;;;;;;;4375503;32;19976;-62
2021/01/27 08:25:37;;;;;;;;;;;;;;;;;;4358177;32;19981;-63
2021/01/27 08:28:36;;;;;;;;;;;;;;;;;;4376301;32;19969;-65
2021/01/27 08:31:11;;;;;;;;;;;;;;;;;;4327579;32;19988;-63
2021/01/27 08:33:46;;;;;;;;;;;;;;;;;;4365111;32;19980;-65
2021/01/27 08:36:13;;;;;;;;;;;;;;;;;;4366776;32;20345;-65
2021/01/27 08:38:41;;;;;;;;;;;;;;;;;;4338079;32;19978;-66
2021/01/27 08:41:08;;;;;;;;;;;;;;;;;;4347913;32;19973;-66
2021/01/27 08:43:38;;;;;;;;;;;;;;;;;;4363259;32;20366;-64
2021/01/27 08:46:33;;;;;;;;;;;;;;;;;;4355849;32;20372;-66
2021/01/27 08:48:59;;;;;;;;;;;;;;;;;;4350452;32;20382;-68
2021/01/27 08:51:48;;;;;;;;;;;;;;;;;;4357654;32;20008;-64
2021/01/27 08:54:27;;;;;;;;;;;;;;;;;;4356645;32;20025;-64
2021/01/27 08:57:11;;;;;;;;;;;;;;;;;;4361744;32;20333;-65
2021/01/27 08:59:56;;;;;;;;;;;;;;;;;;4351138;32;19973;-66
2021/01/27 09:02:40;;;;;;;;;;;;;;;;;;4346696;32;19966;-68
2021/01/27 09:05:07;;;;;;;;;;;;;;;;;;4351535;32;19989;-65
2021/01/27 09:07:32;;;;;;;;;;;;;;;;;;4351441;32;20052;-67
2021/01/27 09:09:58;;;;;;;;;;;;;;;;;;4374177;32;20419;-63
2021/01/27 09:12:27;;;;;;;;;;;;;;;;;;4353719;32;19981;-64
2021/01/27 09:14:52;;;;;;;;;;;;;;;;;;4342212;32;19977;-64
2021/01/27 09:17:18;;;;;;;;;;;;;;;;;;4359962;32;19985;-64
2021/01/27 09:19:44;;;;;;;;;;;;;;;;;;4338428;32;19965;-64
2021/01/27 09:22:27;;;;;;;;;;;;;;;;;;4373190;32;19980;-66
2021/01/27 09:24:53;;;;;;;;;;;;;;;;;;4355741;32;20054;-67
2021/01/27 09:27:19;;;;;;;;;;;;;;;;;;4360735;32;20410;-69
2021/01/27 09:29:44;;;;;;;;;;;;;;;;;;4351206;32;20007;-64
2021/01/27 09:32:16;;;;;;;;;;;;;;;;;;4360868;32;19988;-65
2021/01/27 09:34:42;;;;;;;;;;;;;;;;;;4364016;32;19997;-67
2021/01/27 09:37:28;;;;;;;;;;;;;;;;;;4363531;32;20067;-66
2021/01/27 09:39:54;;;;;;;;;;;;;;;;;;4377797;32;19966;-67
2021/01/27 09:42:27;;;;;;;;;;;;;;;;;;4358062;32;20000;-70
2021/01/27 09:45:03;;;;;;;;;;;;;;;;;;4337910;32;20001;-65
2021/01/27 09:47:29;;;;;;;;;;;;;;;;;;4361811;32;20021;-63
2021/01/27 09:49:57;;;;;;;;;;;;;;;;;;4337450;32;20009;-63
2021/01/27 09:52:22;;;;;;;;;;;;;;;;;;4345810;32;20007;-69
2021/01/27 09:54:58;;;;;;;;;;;;;;;;;;4362990;32;20380;-62
2021/01/27 09:57:24;;;;;;;;;;;;;;;;;;4360273;32;20119;-63
2021/01/27 09:59:51;;;;;;;;;;;;;;;;;;4340948;32;20406;-67
2021/01/27 10:02:23;;;;;;;;;;;;;;;;;;4362284;32;20357;-61
2021/01/27 10:04:49;;;;;;;;;;;;;;;;;;4360039;32;19966;-66
2021/01/27 10:07:15;;;;;;;;;;;;;;;;;;4353901;32;20048;-69
